createdAt,value
2023-01-13T00:01:56.730Z,21.88
2023-01-13T00:04:26.532Z,16.50
2023-01-13T00:06:58.015Z,14.35
2023-01-13T00:09:28.003Z,13.27
2023-01-13T00:11:57.799Z,13.00
2023-01-13T00:14:30.149Z,12.02
2023-01-13T00:17:00.017Z,13.00
2023-01-13T00:19:29.975Z,14.25
2023-01-13T00:22:01.375Z,13.52
2023-01-13T00:24:31.351Z,11.98
2023-01-13T00:27:01.278Z,16.15
2023-01-13T00:29:31.107Z,13.45
2023-01-13T00:32:01.024Z,13.05
2023-01-13T00:34:30.817Z,14.25
2023-01-13T00:37:02.149Z,15.93
2023-01-13T00:39:32.235Z,16.63
2023-01-13T00:42:19.003Z,19.75
2023-01-13T00:44:48.857Z,16.17
2023-01-13T00:50:44.117Z,14.13
2023-01-13T00:53:15.189Z,15.13
2023-01-13T00:55:45.124Z,12.40
2023-01-13T00:58:15.561Z,15.73
2023-01-13T01:00:46.224Z,19.67
2023-01-13T01:03:16.175Z,13.43
2023-01-13T01:05:47.516Z,23.52
2023-01-13T01:08:17.538Z,15.68
2023-01-13T01:10:47.522Z,15.63
2023-01-13T01:13:17.779Z,22.23
2023-01-13T01:15:48.044Z,19.25
2023-01-13T01:18:17.998Z,13.55
2023-01-13T01:20:49.699Z,20.25
2023-01-13T01:23:19.578Z,24.60
2023-01-13T01:25:49.418Z,21.20
2023-01-13T01:28:20.979Z,18.48
2023-01-13T01:30:51.639Z,14.85
2023-01-13T01:33:22.018Z,13.43
2023-01-13T01:35:53.335Z,15.75
2023-01-13T01:38:23.736Z,17.75
2023-01-13T01:40:53.556Z,20.35
2023-01-13T01:43:42.341Z,17.15
2023-01-13T01:46:12.197Z,19.58
2023-01-13T01:48:45.358Z,33.70
2023-01-13T01:51:17.017Z,42.22
2023-01-13T01:53:48.371Z,17.53
2023-01-13T01:56:20.427Z,17.23
2023-01-13T01:58:53.357Z,15.93
2023-01-13T02:01:23.461Z,16.38
2023-01-13T02:04:00.237Z,13.93
2023-01-13T02:06:33.139Z,15.82
2023-01-13T02:09:03.997Z,20.27
2023-01-13T02:11:54.338Z,11.93
2023-01-13T02:14:30.859Z,10.93
2023-01-13T02:17:20.396Z,11.73
2023-01-13T02:20:50.553Z,12.73
2023-01-13T02:24:43.098Z,11.32
2023-01-13T02:28:02.559Z,11.23
2023-01-13T02:31:12.713Z,13.65
2023-01-13T02:33:57.576Z,11.20
2023-01-13T02:36:39.783Z,13.02
2023-01-13T02:39:18.762Z,11.47
2023-01-13T02:42:14.125Z,11.43
2023-01-13T02:44:50.737Z,14.48
2023-01-13T02:47:25.014Z,16.10
2023-01-13T02:50:01.937Z,13.63
2023-01-13T02:52:38.729Z,17.48
2023-01-13T02:55:14.203Z,21.80
2023-01-13T02:57:46.605Z,21.00
2023-01-13T03:00:20.237Z,18.05
2023-01-13T03:02:52.323Z,19.08
2023-01-13T03:05:22.389Z,16.38
2023-01-13T03:08:07.957Z,18.60
2023-01-13T03:11:05.976Z,17.50
2023-01-13T03:14:16.081Z,15.57
2023-01-13T03:17:14.341Z,18.70
2023-01-13T03:19:57.623Z,16.45
2023-01-13T03:22:35.463Z,15.52
2023-01-13T03:25:13.076Z,15.70
2023-01-13T03:27:52.456Z,15.13
2023-01-13T03:30:28.452Z,16.45
2023-01-13T03:33:03.757Z,17.08
2023-01-13T03:35:41.547Z,18.33
2023-01-13T03:38:18.044Z,21.02
2023-01-13T03:40:54.467Z,15.65
2023-01-13T03:43:47.784Z,16.85
2023-01-13T03:51:49.596Z,14.73
2023-01-13T03:54:22.906Z,22.88
2023-01-13T03:56:58.223Z,21.15
2023-01-13T03:59:34.864Z,22.98
2023-01-13T04:02:11.698Z,15.38
2023-01-13T04:04:47.439Z,18.13
2023-01-13T04:07:30.501Z,17.05
2023-01-13T04:12:48.143Z,18.50
2023-01-13T04:15:19.649Z,20.35
2023-01-13T04:17:49.704Z,23.65
2023-01-13T04:20:20.217Z,28.48
2023-01-13T04:22:51.536Z,12.98
2023-01-13T04:25:21.472Z,30.90
2023-01-13T04:27:51.394Z,11.40
2023-01-13T04:30:21.579Z,58.20
2023-01-13T04:32:51.583Z,48.35
2023-01-13T04:35:21.660Z,99.82
2023-01-13T04:37:53.044Z,52.55
2023-01-13T04:40:22.857Z,64.70
2023-01-13T04:42:52.765Z,89.10
2023-01-13T04:45:22.637Z,39.20
2023-01-13T04:47:52.536Z,45.95
2023-01-13T04:50:23.449Z,41.72
2023-01-13T04:52:56.384Z,102.93
2023-01-13T04:55:27.563Z,65.03
2023-01-13T04:57:57.525Z,107.80
2023-01-13T05:00:27.382Z,66.43
2023-01-13T05:02:57.267Z,97.30
2023-01-13T05:05:27.852Z,76.55
2023-01-13T05:07:59.600Z,186.60
2023-01-13T05:10:30.278Z,135.98
2023-01-13T05:13:18.083Z,102.55
2023-01-13T05:16:06.713Z,98.15
2023-01-13T05:18:36.994Z,21.88
2023-01-13T05:21:27.222Z,221.13
2023-01-13T05:24:15.803Z,139.13
2023-01-13T05:26:45.875Z,141.77
2023-01-13T05:29:21.804Z,213.50
2023-01-13T05:31:51.768Z,79.72
2023-01-13T05:34:21.723Z,66.38
2023-01-13T05:36:51.598Z,35.72
2023-01-13T05:39:23.076Z,72.40
2023-01-13T05:42:09.981Z,80.85
2023-01-13T05:44:39.937Z,114.38
2023-01-13T05:47:09.747Z,80.15
2023-01-13T05:49:41.517Z,148.52
2023-01-13T05:52:12.038Z,90.00
2023-01-13T05:54:43.441Z,83.45
2023-01-13T05:57:13.278Z,269.70
2023-01-13T05:59:43.197Z,159.13
2023-01-13T06:02:13.017Z,108.38
2023-01-13T06:04:43.030Z,269.67
2023-01-13T06:07:12.950Z,378.75
2023-01-13T06:09:44.384Z,307.27
2023-01-13T06:12:14.927Z,264.58
2023-01-13T06:14:44.918Z,356.33
2023-01-13T06:17:17.104Z,406.85
2023-01-13T06:19:46.998Z,166.88
2023-01-13T06:22:20.339Z,258.85
2023-01-13T06:24:53.952Z,162.75
2023-01-13T06:27:25.264Z,127.07
2023-01-13T06:29:57.005Z,103.55
2023-01-13T06:32:30.578Z,151.65
2023-01-13T06:35:05.713Z,184.15
2023-01-13T06:37:37.281Z,108.82
2023-01-13T06:40:12.231Z,133.70
2023-01-13T06:42:59.070Z,177.85
2023-01-13T06:45:30.608Z,100.03
2023-01-13T06:48:01.845Z,56.60
2023-01-13T06:51:43.917Z,161.80
2023-01-13T06:54:13.665Z,201.70
2023-01-13T06:56:43.580Z,38.17
2023-01-13T06:59:13.477Z,21.15
2023-01-13T07:01:43.365Z,39.08
2023-01-13T07:04:14.071Z,38.03
2023-01-13T07:06:45.647Z,27.15
2023-01-13T07:09:15.784Z,36.90
2023-01-13T07:11:45.826Z,45.08
2023-01-13T07:14:33.004Z,27.23
2023-01-13T07:17:03.117Z,62.28
2023-01-13T07:19:33.029Z,10.85
2023-01-13T07:22:04.521Z,38.20
2023-01-13T07:24:34.384Z,15.30
2023-01-13T07:27:04.338Z,9.73
2023-01-13T07:29:34.942Z,10.90
2023-01-13T07:32:05.977Z,10.73
2023-01-13T07:34:35.905Z,10.38
2023-01-13T07:37:07.206Z,6.82
2023-01-13T07:39:37.084Z,8.13
2023-01-13T07:42:24.302Z,14.02
2023-01-13T07:44:54.237Z,15.32
2023-01-13T07:47:24.404Z,13.38
2023-01-13T07:49:54.258Z,12.25
2023-01-13T07:52:25.724Z,11.30
2023-01-13T07:54:55.712Z,9.85
2023-01-13T07:57:25.659Z,9.73
2023-01-13T07:59:55.896Z,11.65
2023-01-13T08:02:25.887Z,8.85
2023-01-13T08:04:55.917Z,10.30
2023-01-13T08:07:27.418Z,11.80
2023-01-13T08:09:57.479Z,9.48
2023-01-13T08:12:52.363Z,9.88
2023-01-13T08:15:26.636Z,10.52
2023-01-13T08:17:56.547Z,9.57
2023-01-13T08:20:26.877Z,9.20
2023-01-13T08:23:01.448Z,7.68
2023-01-13T08:25:32.220Z,7.20
2023-01-13T08:28:02.104Z,5.97
2023-01-13T08:30:32.114Z,5.72
2023-01-13T08:33:02.191Z,6.05
2023-01-13T08:35:32.124Z,6.80
2023-01-13T08:38:03.580Z,4.95
2023-01-13T08:40:33.766Z,6.63
2023-01-13T08:43:04.421Z,6.13
2023-01-13T08:45:35.017Z,6.60
2023-01-13T08:48:05.523Z,8.02
2023-01-13T08:50:35.590Z,7.35
2023-01-13T08:53:06.924Z,7.32
2023-01-13T08:55:36.716Z,51.75
2023-01-13T08:58:15.325Z,23.38
2023-01-13T09:00:47.231Z,4.95
2023-01-13T09:03:17.245Z,4.75
2023-01-13T09:05:47.103Z,5.80
2023-01-13T09:08:18.438Z,7.78
2023-01-13T09:10:48.322Z,6.75
2023-01-13T09:13:20.675Z,6.68
2023-01-13T09:15:50.578Z,6.60
2023-01-13T09:18:20.795Z,5.22
2023-01-13T09:20:50.720Z,5.32
2023-01-13T09:23:22.202Z,4.70
2023-01-13T09:25:52.122Z,6.50
2023-01-13T09:28:22.137Z,3.47
2023-01-13T09:30:52.219Z,2.90
2023-01-13T09:33:39.726Z,4.88
2023-01-13T09:36:10.516Z,4.72
2023-01-13T09:38:41.901Z,4.32
2023-01-13T09:41:39.631Z,5.13
2023-01-13T09:44:14.046Z,5.13
2023-01-13T09:46:52.788Z,7.13
2023-01-13T09:51:49.662Z,5.20
2023-01-13T09:54:32.691Z,3.55
2023-01-13T09:59:37.135Z,4.78
2023-01-13T10:02:30.607Z,4.57
2023-01-13T10:05:16.927Z,4.47
2023-01-13T10:07:56.465Z,6.90
2023-01-13T10:10:38.757Z,5.78
2023-01-13T10:13:20.879Z,5.63
2023-01-13T10:16:05.245Z,5.53
2023-01-13T10:18:47.282Z,14.50
2023-01-13T10:21:44.963Z,61.80
2023-01-13T10:24:28.828Z,14.70
2023-01-13T10:27:06.679Z,15.63
2023-01-13T10:29:38.878Z,12.82
2023-01-13T10:32:09.147Z,17.13
2023-01-13T10:34:50.239Z,10.05
2023-01-13T10:37:26.215Z,10.88
2023-01-13T10:40:02.911Z,24.60
2023-01-13T10:42:32.784Z,54.00
2023-01-13T10:45:03.982Z,283.00
2023-01-13T10:47:37.527Z,13.50
2023-01-13T10:50:25.487Z,10.23
2023-01-13T10:53:02.885Z,11.65
2023-01-13T10:55:38.580Z,9.73
2023-01-13T10:58:18.092Z,9.43
2023-01-13T11:00:48.928Z,12.90
2023-01-13T11:03:22.041Z,9.75
2023-01-13T11:05:57.845Z,12.43
2023-01-13T11:08:29.655Z,10.77
2023-01-13T11:11:02.744Z,11.20
2023-01-13T11:14:00.906Z,13.20
2023-01-13T11:16:31.872Z,24.60
2023-01-13T11:19:13.296Z,9.95
2023-01-13T11:21:51.579Z,31.83
2023-01-13T11:24:31.485Z,16.52
2023-01-13T11:27:14.010Z,13.15
2023-01-13T11:29:57.589Z,18.65
2023-01-13T11:32:28.048Z,7.93
2023-01-13T11:35:03.906Z,10.20
2023-01-13T11:37:38.039Z,6.90
2023-01-13T11:40:18.535Z,7.43
2023-01-13T11:42:57.584Z,9.10
2023-01-13T11:45:38.283Z,8.48
2023-01-13T11:48:10.180Z,5.90
2023-01-13T11:50:51.036Z,6.40
2023-01-13T11:53:53.368Z,8.20
2023-01-13T11:56:52.815Z,12.30
2023-01-13T12:00:10.063Z,10.75
2023-01-13T12:02:58.150Z,99.82
2023-01-13T12:05:38.529Z,9.55
2023-01-13T12:08:19.947Z,19.73
2023-01-13T12:11:05.402Z,39.65
2023-01-13T12:13:49.630Z,14.25
2023-01-13T12:16:28.425Z,44.20
2023-01-13T12:19:22.054Z,20.35
2023-01-13T12:22:14.319Z,13.15
2023-01-13T12:24:51.446Z,19.02
2023-01-13T12:27:31.244Z,25.55
2023-01-13T12:30:05.951Z,12.95
2023-01-13T12:32:41.139Z,9.50
2023-01-13T12:35:30.512Z,48.60
2023-01-13T12:38:09.613Z,76.07
2023-01-13T12:40:51.924Z,11.73
2023-01-13T12:43:42.415Z,36.60
2023-01-13T12:46:56.336Z,10.75
2023-01-13T12:52:16.658Z,17.77
2023-01-13T12:55:21.836Z,9.30
2023-01-13T12:58:29.135Z,14.52
2023-01-13T13:01:13.854Z,9.55
2023-01-13T13:03:44.425Z,15.90
2023-01-13T13:06:21.329Z,9.80
2023-01-13T13:09:06.391Z,12.27
2023-01-13T13:12:03.587Z,9.52
2023-01-13T13:15:22.412Z,9.60
2023-01-13T13:18:28.702Z,9.65
2023-01-13T13:21:04.704Z,9.88
2023-01-13T13:24:06.425Z,9.25
2023-01-13T13:26:46.065Z,9.07
2023-01-13T13:29:44.645Z,9.65
2023-01-13T13:32:34.798Z,7.72
2023-01-13T13:35:52.489Z,7.25
2023-01-13T13:39:08.317Z,8.20
2023-01-13T13:41:57.300Z,8.02
2023-01-13T13:44:50.989Z,7.65
2023-01-13T13:47:20.881Z,6.45
2023-01-13T13:49:54.667Z,11.07
2023-01-13T13:52:29.991Z,9.82
2023-01-13T13:55:07.821Z,10.13
2023-01-13T13:57:42.906Z,8.48
2023-01-13T14:00:26.920Z,10.27
2023-01-13T14:03:00.858Z,9.57
2023-01-13T14:05:32.998Z,8.60
2023-01-13T14:08:08.938Z,7.07
2023-01-13T14:10:43.454Z,7.78
2023-01-13T14:13:22.258Z,9.32
2023-01-13T14:15:58.281Z,10.30
2023-01-13T14:18:29.812Z,10.18
2023-01-13T14:21:03.813Z,14.50
2023-01-13T14:23:36.008Z,13.32
2023-01-13T14:26:13.231Z,13.25
2023-01-13T14:28:45.943Z,19.55
2023-01-13T14:31:16.630Z,13.52
2023-01-13T14:33:49.029Z,15.57
2023-01-13T14:36:22.147Z,15.05
2023-01-13T14:39:33.745Z,13.82
2023-01-13T14:42:03.737Z,10.57
2023-01-13T14:44:37.828Z,16.75
2023-01-13T14:47:25.037Z,15.18
2023-01-13T14:50:02.804Z,12.38
2023-01-13T14:52:35.787Z,13.80
2023-01-13T14:55:32.151Z,17.23
2023-01-13T14:58:29.847Z,16.65
2023-01-13T15:01:31.867Z,17.63
2023-01-13T15:04:19.283Z,19.77
2023-01-13T15:06:52.670Z,17.75
2023-01-13T15:09:29.130Z,23.02
2023-01-13T15:11:59.200Z,18.85
2023-01-13T15:14:34.020Z,18.40
2023-01-13T15:17:05.688Z,28.25
2023-01-13T15:19:35.505Z,47.85
2023-01-13T15:22:05.461Z,23.63
2023-01-13T15:24:35.268Z,23.70
2023-01-13T15:27:17.473Z,18.27
2023-01-13T15:29:47.280Z,19.07
2023-01-13T15:32:22.987Z,19.27
2023-01-13T15:34:53.421Z,17.27
2023-01-13T15:37:25.808Z,21.17
2023-01-13T15:39:55.680Z,18.90
2023-01-13T15:42:42.609Z,18.90
2023-01-13T15:45:33.031Z,18.42
2023-01-13T15:48:05.700Z,20.00
2023-01-13T15:51:43.766Z,23.52
2023-01-13T15:54:13.579Z,19.30
2023-01-13T15:56:43.719Z,19.33
2023-01-13T15:59:20.116Z,16.10
2023-01-13T16:01:50.108Z,20.27
2023-01-13T16:04:20.090Z,23.23
2023-01-13T16:06:52.201Z,22.42
2023-01-13T16:09:22.003Z,23.92
2023-01-13T16:11:51.867Z,32.42
2023-01-13T16:14:21.737Z,20.10
2023-01-13T16:16:52.050Z,18.85
2023-01-13T16:19:21.939Z,129.45
2023-01-13T16:21:53.439Z,24.65
2023-01-13T16:24:23.481Z,41.65
2023-01-13T16:26:53.507Z,20.45
2023-01-13T16:29:23.307Z,96.85
2023-01-13T16:31:53.278Z,47.00
2023-01-13T16:34:23.401Z,166.00
2023-01-13T16:36:54.773Z,149.30
2023-01-13T16:39:25.279Z,25.73
2023-01-13T16:41:55.397Z,39.13
2023-01-13T16:44:25.705Z,29.25
2023-01-13T16:46:55.569Z,37.10
2023-01-13T16:49:25.468Z,54.90
2023-01-13T16:51:56.955Z,47.22
2023-01-13T16:54:26.809Z,53.80
2023-01-13T16:56:56.850Z,58.38
2023-01-13T16:59:26.775Z,31.08
2023-01-13T17:01:58.079Z,37.67
2023-01-13T17:04:27.953Z,37.78
2023-01-13T17:07:02.862Z,24.55
2023-01-13T17:09:33.084Z,20.08
2023-01-13T17:12:03.159Z,18.50
2023-01-13T17:14:33.131Z,19.90
2023-01-13T17:17:02.959Z,21.33
2023-01-13T17:19:32.954Z,22.83
2023-01-13T17:22:04.279Z,23.38
2023-01-13T17:24:35.501Z,17.70
2023-01-13T17:27:05.550Z,20.38
2023-01-13T17:29:35.411Z,19.02
2023-01-13T17:32:05.404Z,15.70
2023-01-13T17:34:35.741Z,15.75
2023-01-13T17:37:07.064Z,17.05
2023-01-13T17:39:36.942Z,17.95
2023-01-13T17:42:07.190Z,15.02
2023-01-13T17:44:37.041Z,19.55
2023-01-13T17:47:07.300Z,21.90
2023-01-13T17:49:37.567Z,15.75
2023-01-13T17:52:09.179Z,19.23
2023-01-13T17:54:40.276Z,19.10
2023-01-13T17:57:10.180Z,19.08
2023-01-13T17:59:41.826Z,18.38
2023-01-13T18:02:14.886Z,17.55
2023-01-13T18:04:44.916Z,21.08
2023-01-13T18:07:16.307Z,23.20
2023-01-13T18:09:46.300Z,23.05
2023-01-13T18:12:16.194Z,27.83
2023-01-13T18:14:46.101Z,29.95
2023-01-13T18:17:16.332Z,27.25
2023-01-13T18:20:03.835Z,26.85
2023-01-13T18:22:52.052Z,31.15
2023-01-13T18:25:39.711Z,20.38
2023-01-13T18:28:09.592Z,35.03
2023-01-13T18:30:39.523Z,45.05
2023-01-13T18:33:09.621Z,34.15
2023-01-13T18:35:41.464Z,18.50
2023-01-13T18:38:14.612Z,59.50
2023-01-13T18:40:46.394Z,51.35
2023-01-13T18:43:15.215Z,35.20
2023-01-13T18:45:45.258Z,15.35
2023-01-13T18:51:43.872Z,18.20
2023-01-13T18:54:13.673Z,39.08
2023-01-13T18:56:43.555Z,38.70
2023-01-13T18:59:13.456Z,35.75
2023-01-13T19:01:43.645Z,14.88
2023-01-13T19:04:18.378Z,29.83
2023-01-13T19:06:52.093Z,36.25
2023-01-13T19:09:27.017Z,31.42
2023-01-13T19:11:57.522Z,30.70
2023-01-13T19:14:38.830Z,27.23
2023-01-13T19:17:10.933Z,25.70
2023-01-13T19:19:45.516Z,33.27
2023-01-13T19:22:22.951Z,44.53
2023-01-13T19:24:53.271Z,35.45
2023-01-13T19:27:24.197Z,84.07
2023-01-13T19:29:57.866Z,19.83
2023-01-13T19:32:28.992Z,42.72
2023-01-13T19:34:59.656Z,25.33
2023-01-13T19:37:33.960Z,176.18
2023-01-13T19:40:09.547Z,85.63
2023-01-13T19:42:56.625Z,62.33
2023-01-13T19:45:31.310Z,33.88
2023-01-13T19:48:06.037Z,21.90
2023-01-13T19:50:40.028Z,17.92
2023-01-13T19:53:18.836Z,19.38
2023-01-13T19:55:49.665Z,17.17
2023-01-13T19:58:36.605Z,22.02
2023-01-13T20:01:12.035Z,18.60
2023-01-13T20:03:44.375Z,20.80
2023-01-13T20:06:14.532Z,18.00
2023-01-13T20:08:46.500Z,20.27
2023-01-13T20:11:31.341Z,19.67
2023-01-13T20:14:02.253Z,24.85
2023-01-13T20:16:33.441Z,17.80
2023-01-13T20:19:03.263Z,20.92
2023-01-13T20:21:33.162Z,147.23
2023-01-13T20:24:04.601Z,124.28
2023-01-13T20:26:34.640Z,242.63
2023-01-13T20:29:04.620Z,142.07
2023-01-13T20:31:34.688Z,45.60
2023-01-13T20:34:04.642Z,177.13
2023-01-13T20:36:39.286Z,155.77
2023-01-13T20:39:12.344Z,76.90
2023-01-13T20:41:59.721Z,47.92
2023-01-13T20:44:29.802Z,73.93
2023-01-13T20:46:59.936Z,62.65
2023-01-13T20:49:30.691Z,50.10
2023-01-13T20:52:00.894Z,135.55
2023-01-13T20:54:32.501Z,45.30
2023-01-13T20:57:02.285Z,124.85
2023-01-13T20:59:32.084Z,24.67
2023-01-13T21:02:02.061Z,33.35
2023-01-13T21:04:32.389Z,35.80
2023-01-13T21:07:02.302Z,112.53
2023-01-13T21:09:33.699Z,55.08
2023-01-13T21:12:20.884Z,110.13
2023-01-13T21:15:08.213Z,181.07
2023-01-13T21:17:55.711Z,172.77
2023-01-13T21:20:25.663Z,326.63
2023-01-13T21:22:55.485Z,347.88
2023-01-13T21:25:27.312Z,413.33
2023-01-13T21:28:00.761Z,303.53
2023-01-13T21:30:30.783Z,93.13
2023-01-13T21:33:01.223Z,19.95
2023-01-13T21:35:31.661Z,141.70
2023-01-13T21:38:01.608Z,58.03
2023-01-13T21:40:33.004Z,80.93
2023-01-13T21:43:19.738Z,115.15
2023-01-13T21:46:07.126Z,79.50
2023-01-13T21:51:44.961Z,139.38
2023-01-13T21:54:14.922Z,154.85
2023-01-13T21:56:44.967Z,170.55
2023-01-13T21:59:14.779Z,124.35
2023-01-13T22:02:24.078Z,26.58
2023-01-13T22:04:35.635Z,62.95
2023-01-13T22:07:07.196Z,43.67
2023-01-13T22:09:37.057Z,66.70
2023-01-13T22:12:07.652Z,46.55
2023-01-13T22:14:37.696Z,61.70
2023-01-13T22:17:07.742Z,100.07
2023-01-13T22:19:39.842Z,53.88
2023-01-13T22:22:14.676Z,46.30
2023-01-13T22:24:45.877Z,126.50
2023-01-13T22:27:19.219Z,80.30
2023-01-13T22:29:49.948Z,29.95
2023-01-13T22:32:20.539Z,28.27
2023-01-13T22:34:51.116Z,23.20
2023-01-13T22:37:22.498Z,67.43
2023-01-13T22:39:52.396Z,52.83
2023-01-13T22:42:22.239Z,59.90
2023-01-13T22:44:52.125Z,52.17
2023-01-13T22:47:22.118Z,30.33
2023-01-13T22:49:51.993Z,61.92
2023-01-13T22:52:23.647Z,18.55
2023-01-13T22:54:53.583Z,23.48
2023-01-13T22:57:24.020Z,24.70
2023-01-13T22:59:54.136Z,21.90
2023-01-13T23:02:24.163Z,23.17
2023-01-13T23:04:54.064Z,63.80
2023-01-13T23:07:25.645Z,60.25
2023-01-13T23:09:55.546Z,20.05
2023-01-13T23:12:25.523Z,21.63
2023-01-13T23:14:55.358Z,60.55
2023-01-13T23:17:25.232Z,61.50
2023-01-13T23:19:55.139Z,145.13
2023-01-13T23:22:26.545Z,70.53
2023-01-13T23:24:57.658Z,20.95
2023-01-13T23:27:27.531Z,23.45
2023-01-13T23:29:57.498Z,25.75
2023-01-13T23:32:27.325Z,30.38
2023-01-13T23:34:57.120Z,44.95
2023-01-13T23:37:28.937Z,22.27
2023-01-13T23:39:58.831Z,16.17
2023-01-13T23:42:28.698Z,14.02
2023-01-13T23:44:58.597Z,16.58
2023-01-13T23:47:29.238Z,19.58
2023-01-13T23:49:59.052Z,31.48
2023-01-13T23:52:30.404Z,13.70
2023-01-13T23:55:00.691Z,15.07
2023-01-13T23:57:30.556Z,14.85
